createdAt,value
2023-04-02T00:00:16.270Z,3.60
2023-04-02T00:03:08.494Z,3.70
2023-04-02T00:05:56.588Z,3.60
2023-04-02T00:08:45.253Z,3.60
2023-04-02T00:11:35.232Z,3.60
2023-04-02T00:14:25.810Z,3.70
2023-04-02T00:17:13.096Z,3.50
2023-04-02T00:20:06.379Z,3.60
2023-04-02T00:22:56.092Z,3.60
2023-04-02T00:25:46.294Z,3.60
2023-04-02T00:28:33.688Z,3.50
2023-04-02T00:31:21.816Z,3.40
2023-04-02T00:34:11.544Z,3.40
2023-04-02T00:36:59.243Z,3.40
2023-04-02T00:39:47.085Z,3.40
2023-04-02T00:42:37.619Z,3.40
2023-04-02T00:45:28.644Z,3.40
2023-04-02T00:48:36.812Z,3.40
2023-04-02T00:51:28.415Z,3.40
2023-04-02T00:54:22.640Z,3.40
2023-04-02T00:57:18.439Z,3.40
2023-04-02T01:00:22.332Z,3.30
2023-04-02T01:03:29.913Z,3.30
2023-04-02T01:06:34.184Z,3.30
2023-04-02T01:09:34.156Z,3.30
2023-04-02T01:12:35.515Z,3.30
2023-04-02T01:15:30.121Z,3.30
2023-04-02T01:18:31.126Z,3.30
2023-04-02T01:21:38.020Z,3.30
2023-04-02T01:24:30.881Z,3.20
2023-04-02T01:27:23.943Z,3.30
2023-04-02T01:30:15.906Z,3.30
2023-04-02T01:33:03.629Z,3.40
2023-04-02T01:35:56.926Z,3.30
2023-04-02T01:38:50.884Z,3.30
2023-04-02T01:41:43.240Z,3.30
2023-04-02T01:44:36.040Z,3.40
2023-04-02T01:47:28.749Z,3.40
2023-04-02T01:50:31.386Z,3.40
2023-04-02T01:53:21.325Z,3.40
2023-04-02T01:56:08.840Z,3.40
2023-04-02T01:58:57.325Z,3.30
2023-04-02T02:01:49.349Z,3.30
2023-04-02T02:04:37.944Z,3.30
2023-04-02T02:07:28.198Z,3.30
2023-04-02T02:10:17.694Z,3.30
2023-04-02T02:13:05.283Z,3.20
2023-04-02T02:15:52.817Z,3.30
2023-04-02T02:18:40.404Z,3.20
2023-04-02T02:21:39.856Z,3.30
2023-04-02T02:24:31.591Z,3.30
2023-04-02T02:27:54.947Z,3.20
2023-04-02T02:30:45.836Z,3.20
2023-04-02T02:33:38.220Z,3.20
2023-04-02T02:36:33.820Z,3.20
2023-04-02T02:39:27.996Z,3.20
2023-04-02T02:42:21.974Z,3.20
2023-04-02T02:45:16.800Z,3.10
2023-04-02T02:48:06.204Z,3.20
2023-04-02T02:50:55.585Z,3.20
2023-04-02T02:53:51.912Z,3.10
2023-04-02T02:56:43.957Z,3.20
2023-04-02T02:59:32.491Z,3.10
2023-04-02T03:02:20.960Z,3.20
2023-04-02T03:05:09.622Z,3.30
2023-04-02T03:07:59.151Z,3.30
2023-04-02T03:10:55.178Z,3.30
2023-04-02T03:13:47.285Z,3.30
2023-04-02T03:16:39.673Z,3.40
2023-04-02T03:19:32.431Z,3.30
2023-04-02T03:22:26.128Z,3.30
2023-04-02T03:25:25.798Z,3.30
2023-04-02T03:28:20.755Z,3.20
2023-04-02T03:31:12.429Z,3.20
2023-04-02T03:34:03.252Z,3.10
2023-04-02T03:36:56.784Z,3.10
2023-04-02T03:39:47.806Z,3.10
2023-04-02T03:42:42.919Z,3.20
2023-04-02T03:45:37.486Z,3.10
2023-04-02T03:48:30.801Z,3.20
2023-04-02T03:51:23.913Z,3.10
2023-04-02T03:54:16.487Z,3.20
2023-04-02T03:57:04.526Z,3.20
2023-04-02T04:00:00.212Z,3.20
2023-04-02T04:02:52.195Z,3.20
2023-04-02T04:05:48.530Z,3.30
2023-04-02T04:08:42.771Z,3.20
2023-04-02T04:11:34.964Z,3.20
2023-04-02T04:14:31.908Z,3.20
2023-04-02T04:17:29.860Z,3.20
2023-04-02T04:20:25.182Z,3.20
2023-04-02T04:23:25.579Z,3.10
2023-04-02T04:26:24.586Z,3.20
2023-04-02T04:29:34.501Z,3.10
2023-04-02T04:32:32.076Z,3.10
2023-04-02T04:35:27.994Z,3.10
2023-04-02T04:38:21.902Z,3.30
2023-04-02T04:41:14.570Z,3.30
2023-04-02T04:44:11.570Z,3.30
2023-04-02T04:47:03.626Z,3.30
2023-04-02T04:49:56.937Z,3.30
2023-04-02T04:52:45.886Z,3.20
2023-04-02T04:55:40.345Z,3.20
2023-04-02T04:58:34.821Z,3.30
2023-04-02T05:01:26.734Z,3.30
2023-04-02T05:04:22.318Z,3.30
2023-04-02T05:07:13.093Z,3.40
2023-04-02T05:10:09.636Z,3.30
2023-04-02T05:13:05.533Z,3.30
2023-04-02T05:16:02.902Z,3.40
2023-04-02T05:18:54.927Z,3.40
2023-04-02T05:21:46.270Z,3.30
2023-04-02T05:24:56.466Z,3.40
2023-04-02T05:27:49.385Z,3.40
2023-04-02T05:30:49.250Z,3.40
2023-04-02T05:33:40.614Z,3.50
2023-04-02T05:36:31.336Z,3.50
2023-04-02T05:39:23.812Z,3.40
2023-04-02T05:42:21.360Z,3.50
2023-04-02T05:45:24.090Z,3.50
2023-04-02T05:48:18.814Z,3.50
2023-04-02T05:51:09.270Z,3.50
2023-04-02T05:54:00.517Z,3.50
2023-04-02T05:56:50.925Z,3.50
2023-04-02T05:59:41.878Z,3.50
2023-04-02T06:02:33.957Z,3.60
2023-04-02T06:05:25.015Z,3.80
2023-04-02T06:08:17.810Z,3.80
2023-04-02T06:11:10.727Z,3.80
2023-04-02T06:13:59.977Z,3.70
2023-04-02T06:16:47.807Z,3.80
2023-04-02T06:19:39.408Z,3.80
2023-04-02T06:22:33.813Z,3.80
2023-04-02T06:25:25.056Z,3.80
2023-04-02T06:28:17.079Z,3.80
2023-04-02T06:31:19.830Z,3.80
2023-04-02T06:34:14.470Z,3.90
2023-04-02T06:37:13.767Z,3.90
2023-04-02T06:40:05.550Z,4.00
2023-04-02T06:42:59.627Z,4.00
2023-04-02T06:46:16.573Z,4.10
2023-04-02T06:49:22.674Z,4.10
2023-04-02T06:52:19.106Z,4.30
2023-04-02T06:55:21.710Z,4.20
2023-04-02T06:58:10.708Z,4.30
2023-04-02T07:00:58.453Z,4.10
2023-04-02T07:04:01.137Z,4.70
2023-04-02T07:06:57.005Z,4.70
2023-04-02T07:09:48.487Z,4.90
2023-04-02T07:12:35.969Z,4.90
2023-04-02T07:15:25.481Z,5.40
2023-04-02T07:18:25.380Z,5.60
2023-04-02T07:21:13.080Z,5.70
2023-04-02T07:24:00.744Z,6.00
2023-04-02T07:26:49.425Z,6.40
2023-04-02T07:29:42.349Z,6.60
2023-04-02T07:32:29.794Z,6.10
2023-04-02T07:35:17.433Z,6.00
2023-04-02T07:38:04.729Z,6.40
2023-04-02T07:40:52.032Z,6.10
2023-04-02T07:43:41.952Z,6.20
2023-04-02T07:46:29.081Z,6.00
2023-04-02T07:49:16.569Z,6.40
2023-04-02T07:52:04.513Z,6.40
2023-04-02T07:54:51.924Z,6.70
2023-04-02T07:57:42.630Z,6.40
2023-04-02T08:00:33.022Z,7.10
2023-04-02T08:03:20.979Z,7.10
2023-04-02T08:06:08.766Z,6.90
2023-04-02T08:08:56.074Z,6.60
2023-04-02T08:11:43.849Z,6.10
2023-04-02T08:14:31.240Z,6.30
2023-04-02T08:17:20.082Z,6.00
2023-04-02T08:20:10.508Z,6.00
2023-04-02T08:22:58.225Z,5.80
2023-04-02T08:25:45.422Z,5.70
2023-04-02T08:28:32.805Z,5.60
2023-04-02T08:31:20.350Z,5.60
2023-04-02T08:34:09.199Z,5.60
2023-04-02T08:36:58.355Z,5.50
2023-04-02T08:39:46.566Z,5.50
2023-04-02T08:42:38.911Z,5.40
2023-04-02T08:45:39.931Z,5.30
2023-04-02T08:48:28.120Z,5.40
2023-04-02T08:51:24.587Z,5.60
2023-04-02T08:54:21.064Z,6.00
2023-04-02T08:57:16.729Z,5.90
2023-04-02T09:00:10.574Z,5.50
2023-04-02T09:02:59.998Z,5.30
2023-04-02T09:05:48.905Z,5.30
2023-04-02T09:08:37.523Z,5.60
2023-04-02T09:11:28.476Z,5.70
2023-04-02T09:14:19.782Z,5.60
2023-04-02T09:17:15.740Z,5.50
2023-04-02T09:20:08.861Z,5.50
2023-04-02T09:22:57.760Z,5.30
2023-04-02T09:26:02.926Z,5.10
2023-04-02T09:28:52.794Z,5.20
2023-04-02T09:31:43.246Z,5.30
2023-04-02T09:34:32.593Z,5.30
2023-04-02T09:37:22.764Z,6.00
2023-04-02T09:40:34.218Z,6.10
2023-04-02T09:43:24.664Z,6.10
2023-04-02T09:46:20.916Z,5.60
2023-04-02T09:49:17.805Z,5.60
2023-04-02T09:52:21.016Z,5.50
2023-04-02T09:55:21.711Z,5.80
2023-04-02T09:58:13.641Z,6.00
2023-04-02T10:01:02.497Z,6.20
2023-04-02T10:03:50.118Z,6.70
2023-04-02T10:06:37.928Z,7.10
2023-04-02T10:09:32.279Z,7.20
2023-04-02T10:12:19.406Z,6.90
2023-04-02T10:15:08.448Z,6.70
2023-04-02T10:18:05.462Z,6.90
2023-04-02T10:20:55.341Z,7.30
2023-04-02T10:23:42.888Z,7.50
2023-04-02T10:26:48.592Z,7.30
2023-04-02T10:29:48.857Z,6.90
2023-04-02T10:32:41.752Z,7.10
2023-04-02T10:35:41.609Z,6.90
2023-04-02T10:38:48.968Z,6.80
2023-04-02T10:41:45.507Z,6.90
2023-04-02T10:44:45.599Z,6.70
2023-04-02T10:47:41.140Z,6.60
2023-04-02T10:50:38.694Z,6.80
2023-04-02T10:53:32.851Z,6.80
2023-04-02T10:56:21.497Z,6.90
2023-04-02T10:59:17.514Z,7.10
2023-04-02T11:02:15.598Z,7.10
2023-04-02T11:05:08.779Z,7.00
2023-04-02T11:08:03.395Z,7.20
2023-04-02T11:10:54.376Z,7.10
2023-04-02T11:13:51.030Z,7.20
2023-04-02T11:16:43.361Z,7.00
2023-04-02T11:19:32.702Z,6.80
2023-04-02T11:22:22.595Z,6.90
2023-04-02T11:25:22.990Z,7.10
2023-04-02T11:28:27.976Z,6.80
2023-04-02T11:31:21.956Z,6.90
2023-04-02T11:34:14.464Z,6.80
2023-04-02T11:37:04.333Z,6.80
2023-04-02T11:39:56.851Z,6.70
2023-04-02T11:42:46.952Z,6.50
2023-04-02T11:45:56.198Z,6.60
2023-04-02T11:48:44.416Z,6.70
2023-04-02T11:51:54.331Z,6.80
2023-04-02T11:55:04.945Z,6.80
2023-04-02T11:58:32.271Z,6.60
2023-04-02T12:01:45.269Z,6.60
2023-04-02T12:05:03.461Z,6.80
2023-04-02T12:08:09.990Z,7.00
2023-04-02T12:10:59.721Z,7.20
2023-04-02T12:13:55.120Z,7.40
2023-04-02T12:16:42.679Z,7.70
2023-04-02T12:19:32.729Z,7.80
2023-04-02T12:22:22.966Z,7.70
2023-04-02T12:25:26.898Z,7.60
2023-04-02T12:28:19.656Z,7.60
2023-04-02T12:31:16.566Z,7.60
2023-04-02T12:34:03.563Z,7.70
2023-04-02T12:36:56.260Z,7.90
2023-04-02T12:39:54.107Z,7.80
2023-04-02T12:42:41.807Z,7.80
2023-04-02T12:45:33.254Z,7.70
2023-04-02T12:48:22.356Z,7.60
2023-04-02T12:51:11.985Z,7.60
2023-04-02T12:53:59.586Z,7.50
2023-04-02T12:56:47.619Z,7.50
2023-04-02T12:59:39.005Z,7.70
2023-04-02T13:02:27.798Z,7.90
2023-04-02T13:05:34.353Z,8.40
2023-04-02T13:08:25.583Z,8.30
2023-04-02T13:11:12.992Z,8.40
2023-04-02T13:14:03.843Z,8.30
2023-04-02T13:16:51.135Z,8.30
2023-04-02T13:19:38.441Z,8.20
2023-04-02T13:22:32.725Z,8.20
2023-04-02T13:25:29.459Z,8.40
2023-04-02T13:28:16.692Z,8.60
2023-04-02T13:31:04.152Z,8.80
2023-04-02T13:33:51.437Z,8.80
2023-04-02T13:36:38.973Z,8.70
2023-04-02T13:39:30.175Z,8.30
2023-04-02T13:42:18.963Z,8.30
2023-04-02T13:45:16.667Z,8.50
2023-04-02T13:48:04.237Z,8.60
2023-04-02T13:50:52.938Z,8.50
2023-04-02T13:53:40.557Z,8.40
2023-04-02T13:56:29.437Z,8.00
2023-04-02T13:59:17.280Z,7.90
2023-04-02T14:02:07.514Z,8.00
2023-04-02T14:05:06.584Z,8.10
2023-04-02T14:08:08.879Z,8.10
2023-04-02T14:11:10.779Z,8.00
2023-04-02T14:14:19.351Z,7.80
2023-04-02T14:17:19.188Z,7.80
2023-04-02T14:20:17.260Z,8.00
2023-04-02T14:23:23.256Z,7.80
2023-04-02T14:26:18.238Z,7.80
2023-04-02T14:29:15.057Z,7.70
2023-04-02T14:32:07.209Z,8.20
2023-04-02T14:35:02.071Z,8.20
2023-04-02T14:37:56.356Z,8.00
2023-04-02T14:40:49.549Z,7.60
2023-04-02T14:43:41.616Z,7.60
2023-04-02T14:49:25.735Z,8.30
2023-04-02T14:52:17.041Z,8.20
2023-04-02T14:55:07.251Z,8.10
2023-04-02T14:57:56.710Z,8.10
2023-04-02T15:00:46.963Z,8.00
2023-04-02T15:03:43.219Z,7.90
2023-04-02T15:06:37.592Z,7.60
2023-04-02T15:09:31.312Z,8.00
2023-04-02T15:12:22.776Z,7.80
2023-04-02T15:15:26.819Z,7.50
2023-04-02T15:18:20.712Z,7.40
2023-04-02T15:21:34.258Z,7.40
2023-04-02T15:24:31.351Z,7.50
2023-04-02T15:27:33.243Z,7.60
2023-04-02T15:30:25.923Z,7.80
2023-04-02T15:33:41.538Z,7.70
2023-04-02T15:36:56.971Z,7.50
2023-04-02T15:40:14.312Z,7.40
2023-04-02T15:43:11.431Z,7.30
2023-04-02T15:46:19.695Z,7.30
2023-04-02T15:49:16.158Z,7.20
2023-04-02T15:52:11.092Z,7.30
2023-04-02T15:55:10.723Z,7.00
2023-04-02T15:58:22.784Z,6.90
2023-04-02T16:01:16.327Z,6.90
2023-04-02T16:04:39.500Z,6.90
2023-04-02T16:07:58.766Z,6.90
2023-04-02T16:10:46.359Z,6.80
2023-04-02T16:13:36.416Z,6.70
2023-04-02T16:16:28.128Z,6.70
2023-04-02T16:19:23.644Z,6.80
2023-04-02T16:22:17.594Z,6.90
2023-04-02T16:25:17.153Z,7.10
2023-04-02T16:28:14.887Z,7.00
2023-04-02T16:31:11.648Z,6.80
2023-04-02T16:34:05.317Z,6.60
2023-04-02T16:37:00.831Z,6.40
2023-04-02T16:39:53.812Z,6.30
2023-04-02T16:42:48.980Z,6.30
2023-04-02T16:45:42.745Z,6.30
2023-04-02T16:48:38.921Z,6.40
2023-04-02T16:51:34.234Z,6.50
2023-04-02T16:54:30.541Z,6.50
2023-04-02T16:57:28.640Z,6.40
2023-04-02T17:00:25.008Z,6.40
2023-04-02T17:03:29.186Z,6.30
2023-04-02T17:06:24.540Z,6.20
2023-04-02T17:09:23.033Z,6.20
2023-04-02T17:12:20.426Z,6.20
2023-04-02T17:15:26.652Z,6.20
2023-04-02T17:18:20.334Z,6.20
2023-04-02T17:21:10.997Z,6.00
2023-04-02T17:24:03.089Z,6.00
2023-04-02T17:26:54.508Z,5.80
2023-04-02T17:29:45.736Z,5.70
2023-04-02T17:32:34.489Z,5.70
2023-04-02T17:35:32.212Z,5.60
2023-04-02T17:38:27.097Z,5.60
2023-04-02T17:41:20.658Z,5.60
2023-04-02T17:44:30.575Z,5.60
2023-04-02T17:47:21.940Z,5.50
2023-04-02T17:50:43.562Z,5.40
2023-04-02T17:53:45.508Z,5.30
2023-04-02T17:56:53.379Z,5.30
2023-04-02T17:59:55.527Z,5.30
2023-04-02T18:03:09.706Z,5.30
2023-04-02T18:06:05.867Z,5.00
2023-04-02T18:09:08.862Z,5.00
2023-04-02T18:12:11.462Z,5.00
2023-04-02T18:15:20.728Z,4.90
2023-04-02T18:18:18.660Z,4.90
2023-04-02T18:21:16.650Z,4.80
2023-04-02T18:24:30.817Z,4.80
2023-04-02T18:27:32.794Z,4.70
2023-04-02T18:30:25.020Z,4.60
2023-04-02T18:33:30.301Z,4.70
2023-04-02T18:36:23.893Z,4.60
2023-04-02T18:39:20.445Z,4.60
2023-04-02T18:42:17.167Z,4.50
2023-04-02T18:45:15.113Z,4.50
2023-04-02T18:48:11.337Z,4.40
2023-04-02T18:51:00.366Z,4.40
2023-04-02T18:53:51.792Z,4.40
2023-04-02T18:56:41.325Z,4.30
2023-04-02T18:59:42.507Z,4.30
2023-04-02T19:02:41.375Z,4.20
2023-04-02T19:05:37.790Z,4.10
2023-04-02T19:08:29.858Z,4.30
2023-04-02T19:11:27.375Z,4.10
2023-04-02T19:14:17.626Z,4.00
2023-04-02T19:17:13.197Z,4.00
2023-04-02T19:20:09.055Z,4.00
2023-04-02T19:23:04.887Z,3.90
2023-04-02T19:26:02.611Z,3.90
2023-04-02T19:29:00.047Z,3.80
2023-04-02T19:31:55.122Z,3.80
2023-04-02T19:34:49.571Z,3.70
2023-04-02T19:37:41.137Z,3.80
2023-04-02T19:40:40.930Z,3.70
2023-04-02T19:43:28.302Z,3.70
2023-04-02T19:46:17.063Z,3.60
2023-04-02T19:49:09.283Z,3.50
2023-04-02T19:51:57.064Z,3.60
2023-04-02T19:54:44.388Z,3.50
2023-04-02T19:57:31.979Z,3.50
2023-04-02T20:00:20.439Z,3.50
2023-04-02T20:03:09.061Z,3.40
2023-04-02T20:05:56.856Z,3.50
2023-04-02T20:08:44.056Z,3.40
2023-04-02T20:11:31.482Z,3.40
2023-04-02T20:14:19.031Z,3.40
2023-04-02T20:17:06.706Z,3.30
2023-04-02T20:19:55.610Z,3.30
2023-04-02T20:22:43.179Z,3.20
2023-04-02T20:25:30.740Z,3.20
2023-04-02T20:28:18.080Z,3.10
2023-04-02T20:31:10.591Z,3.10
2023-04-02T20:33:59.137Z,3.20
2023-04-02T20:36:48.194Z,3.00
2023-04-02T20:39:35.388Z,3.00
2023-04-02T20:42:22.986Z,3.00
2023-04-02T20:45:11.512Z,2.90
2023-04-02T20:47:59.013Z,2.90
2023-04-02T20:50:48.097Z,2.80
2023-04-02T20:53:38.066Z,2.90
2023-04-02T20:56:26.569Z,2.80
2023-04-02T20:59:13.650Z,2.80
2023-04-02T21:02:01.228Z,2.80
2023-04-02T21:04:48.860Z,2.70
2023-04-02T21:07:36.234Z,2.70
2023-04-02T21:10:25.352Z,2.70
2023-04-02T21:13:12.779Z,2.60
2023-04-02T21:16:00.824Z,2.60
2023-04-02T21:18:50.716Z,2.60
2023-04-02T21:21:39.132Z,2.60
2023-04-02T21:24:26.427Z,2.50
2023-04-02T21:27:15.061Z,2.60
2023-04-02T21:30:02.314Z,2.60
2023-04-02T21:32:49.769Z,2.50
2023-04-02T21:35:37.429Z,2.50
2023-04-02T21:38:24.676Z,2.50
2023-04-02T21:41:14.232Z,2.40
2023-04-02T21:44:04.199Z,2.40
2023-04-02T21:46:53.618Z,2.40
2023-04-02T21:49:41.259Z,2.30
2023-04-02T21:52:28.650Z,2.30
2023-04-02T21:55:16.261Z,2.30
2023-04-02T21:58:03.473Z,2.30
2023-04-02T22:00:52.260Z,2.30
2023-04-02T22:03:40.319Z,2.20
2023-04-02T22:06:29.868Z,2.20
2023-04-02T22:09:18.959Z,2.20
2023-04-02T22:12:07.943Z,2.10
2023-04-02T22:14:55.194Z,2.10
2023-04-02T22:17:44.201Z,2.10
2023-04-02T22:20:31.672Z,2.10
2023-04-02T22:23:19.591Z,2.10
2023-04-02T22:26:09.567Z,2.20
2023-04-02T22:28:57.085Z,2.10
2023-04-02T22:31:44.623Z,2.00
2023-04-02T22:34:33.410Z,1.90
2023-04-02T22:37:20.905Z,2.00
2023-04-02T22:40:09.423Z,1.90
2023-04-02T22:42:56.846Z,2.00
2023-04-02T22:45:45.869Z,1.90
2023-04-02T22:48:33.657Z,1.90
2023-04-02T22:51:23.390Z,2.00
2023-04-02T22:54:10.872Z,1.90
2023-04-02T22:56:58.281Z,1.90
2023-04-02T22:59:45.588Z,1.90
2023-04-02T23:02:33.082Z,1.90
2023-04-02T23:05:20.880Z,2.00
2023-04-02T23:08:09.466Z,2.00
2023-04-02T23:11:02.681Z,2.00
2023-04-02T23:13:51.790Z,1.90
2023-04-02T23:16:39.054Z,1.90
2023-04-02T23:19:26.776Z,1.80
2023-04-02T23:22:13.921Z,1.80
2023-04-02T23:25:04.060Z,1.80
2023-04-02T23:27:52.530Z,1.70
2023-04-02T23:30:40.058Z,1.70
2023-04-02T23:33:27.223Z,1.70
2023-04-02T23:36:23.368Z,1.70
2023-04-02T23:39:13.910Z,1.60
2023-04-02T23:42:03.035Z,1.70
2023-04-02T23:44:50.475Z,1.70
2023-04-02T23:47:37.691Z,1.70
2023-04-02T23:50:25.448Z,1.70
2023-04-02T23:53:13.146Z,1.70
2023-04-02T23:56:00.923Z,1.60
2023-04-02T23:58:51.053Z,1.80
